EWG7F LGTS-LGSK
Flight info
| Callsign | EWG7F |
|---|---|
| Flight time | 0h 14m |
| Altitude | 17000 |
| Route | TSL |
| Aircraft | A319/M-SDE3FGHIRWY/LB1 |
Departure
| Time | 2026-04-14 09:02 |
|---|---|
| Airport | Thessaloniki Macedonia International Airport (LGTS) |
Arrival
| Time | 2026-04-14 09:17 |
|---|---|
| Airport | Skiathos Island National Airport (LGSK) |
| Time | Latitude | Longitude | Altitude | Speed | Heading |
|---|---|---|---|---|---|
| 2026-04-14 08:30 | 40.52376 | 22.97500 | 29 ft | 0 kts | 44° |
| 2026-04-14 08:55 | 40.52371 | 22.97494 | 29 ft | 4 kts | 44° |
| 2026-04-14 08:55 | 40.52352 | 22.97469 | 29 ft | 4 kts | 44° |
| 2026-04-14 08:55 | 40.52333 | 22.97444 | 29 ft | 4 kts | 44° |
| 2026-04-14 08:55 | 40.52313 | 22.97421 | 29 ft | 4 kts | 32° |
| 2026-04-14 08:56 | 40.52298 | 22.97411 | 29 ft | 4 kts | 6° |
| 2026-04-14 08:56 | 40.52280 | 22.97416 | 29 ft | 1 kts | 315° |
| 2026-04-14 08:56 | 40.52268 | 22.97432 | 29 ft | 0 kts | 315° |
| 2026-04-14 08:58 | 40.52268 | 22.97431 | 29 ft | 1 kts | 315° |
| 2026-04-14 08:58 | 40.52283 | 22.97412 | 29 ft | 5 kts | 315° |
| 2026-04-14 08:58 | 40.52317 | 22.97368 | 29 ft | 9 kts | 316° |
| 2026-04-14 08:58 | 40.52369 | 22.97303 | 29 ft | 12 kts | 316° |
| 2026-04-14 08:59 | 40.52380 | 22.97188 | 29 ft | 15 kts | 266° |
| 2026-04-14 08:59 | 40.52467 | 22.97123 | 29 ft | 17 kts | 347° |
| 2026-04-14 08:59 | 40.52594 | 22.97082 | 29 ft | 20 kts | 345° |
| 2026-04-14 08:59 | 40.52742 | 22.97037 | 29 ft | 24 kts | 347° |
| 2026-04-14 09:00 | 40.52892 | 22.96989 | 29 ft | 23 kts | 346° |
| 2026-04-14 09:00 | 40.53009 | 22.96951 | 29 ft | 7 kts | 346° |
| 2026-04-14 09:00 | 40.53049 | 22.96938 | 29 ft | 8 kts | 346° |
| 2026-04-14 09:00 | 40.53070 | 22.96862 | 29 ft | 13 kts | 233° |
| 2026-04-14 09:01 | 40.53000 | 22.96772 | 28 ft | 11 kts | 176° |
| 2026-04-14 09:01 | 40.52982 | 22.96778 | 28 ft | 0 kts | 165° |
| 2026-04-14 09:01 | 40.52967 | 22.96783 | 28 ft | 8 kts | 165° |
| 2026-04-14 09:01 | 40.52887 | 22.96810 | 30 ft | 0 kts | 165° |
| 2026-04-14 09:02 | 40.52812 | 22.96834 | 30 ft | 36 kts | 166° |
| 2026-04-14 09:02 | 40.52311 | 22.96989 | 28 ft | 108 kts | 166° |
| 2026-04-14 09:02 | 40.51392 | 22.97276 | 178 ft | 147 kts | 168° |
| 2026-04-14 09:02 | 40.50451 | 22.97574 | 912 ft | 139 kts | 167° |
| 2026-04-14 09:03 | 40.49487 | 22.97886 | 1447 ft | 148 kts | 166° |
| 2026-04-14 09:03 | 40.48408 | 22.98232 | 1840 ft | 171 kts | 166° |
| 2026-04-14 09:03 | 40.47174 | 22.98626 | 2255 ft | 194 kts | 166° |
| 2026-04-14 09:03 | 40.45838 | 22.99055 | 2677 ft | 220 kts | 165° |
| 2026-04-14 09:04 | 40.44262 | 22.99544 | 3348 ft | 244 kts | 166° |
| 2026-04-14 09:04 | 40.41310 | 23.00399 | 5365 ft | 251 kts | 167° |
| 2026-04-14 09:04 | 40.37833 | 23.01384 | 7551 ft | 261 kts | 169° |
| 2026-04-14 09:04 | 40.34222 | 23.02416 | 9593 ft | 270 kts | 171° |
| 2026-04-14 09:05 | 40.30483 | 23.03495 | 11462 ft | 279 kts | 173° |
| 2026-04-14 09:05 | 40.26637 | 23.05204 | 12733 ft | 314 kts | 163° |
| 2026-04-14 09:05 | 40.22498 | 23.07473 | 13216 ft | 316 kts | 163° |
| 2026-04-14 09:05 | 40.18638 | 23.09587 | 13224 ft | 299 kts | 164° |
| 2026-04-14 09:06 | 40.14762 | 23.11659 | 13215 ft | 301 kts | 164° |
| 2026-04-14 09:06 | 40.10864 | 23.13722 | 13217 ft | 302 kts | 164° |
| 2026-04-14 09:06 | 40.06960 | 23.15792 | 13217 ft | 302 kts | 164° |
| 2026-04-14 09:06 | 40.03073 | 23.17859 | 13220 ft | 302 kts | 164° |
| 2026-04-14 09:07 | 39.99180 | 23.19931 | 13219 ft | 302 kts | 164° |
| 2026-04-14 09:07 | 39.95281 | 23.22005 | 13220 ft | 302 kts | 164° |
| 2026-04-14 09:07 | 39.91438 | 23.24046 | 13220 ft | 302 kts | 164° |
| 2026-04-14 09:07 | 39.87013 | 23.26395 | 13219 ft | 302 kts | 164° |
| 2026-04-14 09:08 | 39.79310 | 23.30462 | 13240 ft | 303 kts | 164° |
| 2026-04-14 09:08 | 39.71488 | 23.34589 | 13228 ft | 303 kts | 163° |
| 2026-04-14 09:08 | 39.64136 | 23.38465 | 13233 ft | 303 kts | 163° |
| 2026-04-14 09:08 | 39.58144 | 23.41607 | 13210 ft | 302 kts | 163° |
| 2026-04-14 09:09 | 39.52253 | 23.44696 | 12408 ft | 290 kts | 163° |
| 2026-04-14 09:09 | 39.44894 | 23.48539 | 11068 ft | 283 kts | 163° |
| 2026-04-14 09:09 | 39.37626 | 23.52215 | 9636 ft | 277 kts | 164° |
| 2026-04-14 09:09 | 39.30550 | 23.55597 | 8293 ft | 266 kts | 163° |
| 2026-04-14 09:10 | 39.23718 | 23.58877 | 7040 ft | 258 kts | 163° |
| 2026-04-14 09:10 | 39.20622 | 23.60360 | 6469 ft | 254 kts | 164° |
| 2026-04-14 09:10 | 39.18646 | 23.60820 | 6117 ft | 248 kts | 180° |
| 2026-04-14 09:10 | 39.15343 | 23.59836 | 5516 ft | 244 kts | 207° |
| 2026-04-14 09:11 | 39.12354 | 23.57857 | 4918 ft | 239 kts | 206° |
| 2026-04-14 09:11 | 39.09462 | 23.55976 | 4293 ft | 223 kts | 206° |
| 2026-04-14 09:11 | 39.07053 | 23.54405 | 3750 ft | 203 kts | 206° |
| 2026-04-14 09:11 | 39.05811 | 23.53596 | 3508 ft | 197 kts | 205° |
| 2026-04-14 09:12 | 39.04609 | 23.52814 | 3322 ft | 191 kts | 205° |
| 2026-04-14 09:12 | 39.03420 | 23.52041 | 3023 ft | 191 kts | 205° |
| 2026-04-14 09:12 | 39.02400 | 23.51022 | 2838 ft | 187 kts | 234° |
| 2026-04-14 09:12 | 39.01983 | 23.49593 | 2724 ft | 178 kts | 263° |
| 2026-04-14 09:13 | 39.02204 | 23.48087 | 2566 ft | 169 kts | 296° |
| 2026-04-14 09:13 | 39.02940 | 23.46985 | 2433 ft | 158 kts | 326° |
| 2026-04-14 09:13 | 39.03948 | 23.46489 | 2327 ft | 156 kts | 354° |
| 2026-04-14 09:13 | 39.05014 | 23.46627 | 2214 ft | 154 kts | 16° |
| 2026-04-14 09:14 | 39.06165 | 23.46962 | 2081 ft | 153 kts | 14° |
| 2026-04-14 09:14 | 39.08746 | 23.47710 | 1721 ft | 150 kts | 15° |
| 2026-04-14 09:14 | 39.09772 | 23.47982 | 1612 ft | 149 kts | 10° |
| 2026-04-14 09:14 | 39.10777 | 23.48053 | 1441 ft | 137 kts | 3° |
| 2026-04-14 09:15 | 39.11708 | 23.48071 | 1119 ft | 129 kts | 7° |
| 2026-04-14 09:15 | 39.12576 | 23.48216 | 938 ft | 124 kts | 16° |
| 2026-04-14 09:15 | 39.13409 | 23.48450 | 763 ft | 122 kts | 17° |
| 2026-04-14 09:15 | 39.14210 | 23.48788 | 599 ft | 120 kts | 24° |
| 2026-04-14 09:16 | 39.14992 | 23.49153 | 459 ft | 118 kts | 21° |
| 2026-04-14 09:16 | 39.15765 | 23.49489 | 292 ft | 118 kts | 21° |
| 2026-04-14 09:16 | 39.16529 | 23.49838 | 131 ft | 116 kts | 20° |
| 2026-04-14 09:16 | 39.17287 | 23.50181 | 30 ft | 107 kts | 19° |
| 2026-04-14 09:17 | 39.17788 | 23.50397 | 38 ft | 47 kts | 20° |
| 2026-04-14 09:17 | 39.17938 | 23.50439 | 41 ft | 7 kts | 310° |
| 2026-04-14 09:17 | 39.17919 | 23.50364 | 42 ft | 11 kts | 246° |
| 2026-04-14 09:17 | 39.17871 | 23.50316 | 40 ft | 4 kts | 195° |
| 2026-04-14 09:18 | 39.17831 | 23.50302 | 39 ft | 7 kts | 196° |
| 2026-04-14 09:18 | 39.17825 | 23.50259 | 39 ft | 7 kts | 279° |
| 2026-04-14 09:18 | 39.17837 | 23.50210 | 37 ft | 0 kts | 290° |
| 2026-04-14 09:18 | 39.17838 | 23.50203 | 38 ft | 0 kts | 290° |